sensor_id;sensor_type;location;lat;lon;timestamp;P1;durP1;ratioP1;P2;durP2;ratioP2
69854;SDS011;57146;48.140;16.304;2022-08-01T00:01:48;3.65;;;1.70;;
69854;SDS011;57146;48.140;16.304;2022-08-01T00:04:15;3.33;;;1.80;;
69854;SDS011;57146;48.140;16.304;2022-08-01T00:06:42;3.15;;;1.67;;
69854;SDS011;57146;48.140;16.304;2022-08-01T00:09:09;3.60;;;1.75;;
69854;SDS011;57146;48.140;16.304;2022-08-01T00:11:49;4.23;;;1.50;;
69854;SDS011;57146;48.140;16.304;2022-08-01T00:14:26;3.25;;;1.80;;
69854;SDS011;57146;48.140;16.304;2022-08-01T00:16:57;3.63;;;1.70;;
69854;SDS011;57146;48.140;16.304;2022-08-01T00:19:32;3.97;;;2.00;;
69854;SDS011;57146;48.140;16.304;2022-08-01T00:21:59;3.17;;;1.83;;
69854;SDS011;57146;48.140;16.304;2022-08-01T00:24:26;4.90;;;2.00;;
69854;SDS011;57146;48.140;16.304;2022-08-01T00:26:53;4.18;;;1.58;;
69854;SDS011;57146;48.140;16.304;2022-08-01T00:29:19;3.50;;;1.80;;
69854;SDS011;57146;48.140;16.304;2022-08-01T00:32:06;3.85;;;1.70;;
69854;SDS011;57146;48.140;16.304;2022-08-01T00:34:34;3.75;;;1.60;;
69854;SDS011;57146;48.140;16.304;2022-08-01T00:37:01;4.63;;;1.60;;
69854;SDS011;57146;48.140;16.304;2022-08-01T00:39:28;4.00;;;1.63;;
69854;SDS011;57146;48.140;16.304;2022-08-01T00:41:55;3.90;;;1.60;;
69854;SDS011;57146;48.140;16.304;2022-08-01T00:44:26;4.25;;;2.00;;
69854;SDS011;57146;48.140;16.304;2022-08-01T00:46:53;3.70;;;1.67;;
69854;SDS011;57146;48.140;16.304;2022-08-01T00:49:20;3.00;;;1.50;;
69854;SDS011;57146;48.140;16.304;2022-08-01T00:51:47;3.20;;;1.77;;
69854;SDS011;57146;48.140;16.304;2022-08-01T00:54:14;3.53;;;2.00;;
69854;SDS011;57146;48.140;16.304;2022-08-01T00:56:42;3.72;;;1.70;;
69854;SDS011;57146;48.140;16.304;2022-08-01T00:59:11;2.90;;;1.60;;
69854;SDS011;57146;48.140;16.304;2022-08-01T01:01:40;5.37;;;1.70;;
69854;SDS011;57146;48.140;16.304;2022-08-01T01:04:15;3.38;;;1.80;;
69854;SDS011;57146;48.140;16.304;2022-08-01T01:09:42;3.17;;;1.50;;
69854;SDS011;57146;48.140;16.304;2022-08-01T01:15:27;3.27;;;1.60;;
69854;SDS011;57146;48.140;16.304;2022-08-01T01:18:25;4.35;;;1.70;;
69854;SDS011;57146;48.140;16.304;2022-08-01T01:29:36;3.53;;;1.60;;
69854;SDS011;57146;48.140;16.304;2022-08-01T01:32:33;3.03;;;1.63;;
69854;SDS011;57146;48.140;16.304;2022-08-01T01:35:18;3.00;;;1.45;;
69854;SDS011;57146;48.140;16.304;2022-08-01T01:37:50;3.22;;;1.50;;
69854;SDS011;57146;48.140;16.304;2022-08-01T01:40:21;3.92;;;1.75;;
69854;SDS011;57146;48.140;16.304;2022-08-01T01:42:52;3.47;;;1.50;;
69854;SDS011;57146;48.140;16.304;2022-08-01T01:45:25;4.00;;;1.40;;
69854;SDS011;57146;48.140;16.304;2022-08-01T01:47:52;3.40;;;1.42;;
69854;SDS011;57146;48.140;16.304;2022-08-01T01:50:21;3.47;;;1.50;;
69854;SDS011;57146;48.140;16.304;2022-08-01T01:52:51;2.58;;;1.30;;
69854;SDS011;57146;48.140;16.304;2022-08-01T01:55:19;2.87;;;1.67;;
69854;SDS011;57146;48.140;16.304;2022-08-01T01:57:48;3.83;;;1.50;;
69854;SDS011;57146;48.140;16.304;2022-08-01T02:00:16;3.28;;;1.30;;
69854;SDS011;57146;48.140;16.304;2022-08-01T02:02:44;3.80;;;1.70;;
69854;SDS011;57146;48.140;16.304;2022-08-01T02:05:12;3.33;;;1.70;;
69854;SDS011;57146;48.140;16.304;2022-08-01T02:07:40;3.80;;;1.50;;
69854;SDS011;57146;48.140;16.304;2022-08-01T02:10:08;3.38;;;1.67;;
69854;SDS011;57146;48.140;16.304;2022-08-01T02:12:37;3.97;;;1.70;;
69854;SDS011;57146;48.140;16.304;2022-08-01T02:15:07;3.33;;;1.40;;
69854;SDS011;57146;48.140;16.304;2022-08-01T02:17:37;3.38;;;1.80;;
69854;SDS011;57146;48.140;16.304;2022-08-01T02:20:08;3.83;;;1.53;;
69854;SDS011;57146;48.140;16.304;2022-08-01T02:22:46;3.30;;;1.40;;
69854;SDS011;57146;48.140;16.304;2022-08-01T02:25:23;4.03;;;1.77;;
69854;SDS011;57146;48.140;16.304;2022-08-01T02:30:41;4.28;;;2.00;;
69854;SDS011;57146;48.140;16.304;2022-08-01T02:33:15;3.47;;;1.70;;
69854;SDS011;57146;48.140;16.304;2022-08-01T02:35:46;3.78;;;1.80;;
69854;SDS011;57146;48.140;16.304;2022-08-01T02:38:41;3.33;;;1.80;;
69854;SDS011;57146;48.140;16.304;2022-08-01T02:41:17;3.40;;;1.75;;
69854;SDS011;57146;48.140;16.304;2022-08-01T02:43:47;3.45;;;1.70;;
69854;SDS011;57146;48.140;16.304;2022-08-01T02:46:23;3.80;;;1.63;;
69854;SDS011;57146;48.140;16.304;2022-08-01T02:48:55;3.00;;;1.67;;
69854;SDS011;57146;48.140;16.304;2022-08-01T02:51:24;3.15;;;1.42;;
69854;SDS011;57146;48.140;16.304;2022-08-01T02:53:53;4.28;;;1.48;;
69854;SDS011;57146;48.140;16.304;2022-08-01T02:56:21;4.13;;;1.83;;
69854;SDS011;57146;48.140;16.304;2022-08-01T02:58:49;3.37;;;1.77;;
69854;SDS011;57146;48.140;16.304;2022-08-01T03:01:19;4.53;;;1.70;;
69854;SDS011;57146;48.140;16.304;2022-08-01T03:03:47;4.60;;;1.90;;
69854;SDS011;57146;48.140;16.304;2022-08-01T03:06:14;2.95;;;1.75;;
69854;SDS011;57146;48.140;16.304;2022-08-01T03:08:43;2.95;;;1.63;;
69854;SDS011;57146;48.140;16.304;2022-08-01T03:11:13;3.40;;;1.80;;
69854;SDS011;57146;48.140;16.304;2022-08-01T03:13:41;3.60;;;1.70;;
69854;SDS011;57146;48.140;16.304;2022-08-01T03:16:11;4.05;;;1.77;;
69854;SDS011;57146;48.140;16.304;2022-08-01T03:18:38;4.63;;;1.60;;
69854;SDS011;57146;48.140;16.304;2022-08-01T03:21:08;2.97;;;1.40;;
69854;SDS011;57146;48.140;16.304;2022-08-01T03:23:36;3.23;;;1.10;;
69854;SDS011;57146;48.140;16.304;2022-08-01T03:26:05;3.72;;;1.38;;
69854;SDS011;57146;48.140;16.304;2022-08-01T03:28:32;4.35;;;1.40;;
69854;SDS011;57146;48.140;16.304;2022-08-01T03:30:59;3.65;;;1.20;;
69854;SDS011;57146;48.140;16.304;2022-08-01T03:33:28;3.35;;;1.30;;
69854;SDS011;57146;48.140;16.304;2022-08-01T03:35:55;3.37;;;1.00;;
69854;SDS011;57146;48.140;16.304;2022-08-01T03:38:26;2.95;;;1.35;;
69854;SDS011;57146;48.140;16.304;2022-08-01T03:41:02;3.67;;;1.52;;
69854;SDS011;57146;48.140;16.304;2022-08-01T03:43:36;3.67;;;1.25;;
69854;SDS011;57146;48.140;16.304;2022-08-01T03:46:16;3.15;;;1.20;;
69854;SDS011;57146;48.140;16.304;2022-08-01T03:48:50;4.10;;;1.20;;
69854;SDS011;57146;48.140;16.304;2022-08-01T03:51:21;3.33;;;1.38;;
69854;SDS011;57146;48.140;16.304;2022-08-01T03:53:49;3.47;;;1.65;;
69854;SDS011;57146;48.140;16.304;2022-08-01T03:56:19;3.72;;;1.40;;
69854;SDS011;57146;48.140;16.304;2022-08-01T03:58:48;4.88;;;1.50;;
69854;SDS011;57146;48.140;16.304;2022-08-01T04:01:16;3.93;;;1.23;;
69854;SDS011;57146;48.140;16.304;2022-08-01T04:03:44;4.35;;;1.52;;
69854;SDS011;57146;48.140;16.304;2022-08-01T04:06:11;3.30;;;1.00;;
69854;SDS011;57146;48.140;16.304;2022-08-01T04:08:38;3.42;;;1.27;;
69854;SDS011;57146;48.140;16.304;2022-08-01T04:11:07;2.80;;;1.20;;
69854;SDS011;57146;48.140;16.304;2022-08-01T04:13:35;3.73;;;1.20;;
69854;SDS011;57146;48.140;16.304;2022-08-01T04:16:04;3.47;;;1.20;;
69854;SDS011;57146;48.140;16.304;2022-08-01T04:18:31;3.95;;;1.80;;
69854;SDS011;57146;48.140;16.304;2022-08-01T04:20:58;3.55;;;1.77;;
69854;SDS011;57146;48.140;16.304;2022-08-01T04:23:24;3.45;;;1.60;;
69854;SDS011;57146;48.140;16.304;2022-08-01T04:25:53;3.07;;;1.30;;
69854;SDS011;57146;48.140;16.304;2022-08-01T04:28:22;3.80;;;1.50;;
69854;SDS011;57146;48.140;16.304;2022-08-01T04:30:52;3.30;;;1.20;;
69854;SDS011;57146;48.140;16.304;2022-08-01T04:33:28;3.75;;;1.38;;
69854;SDS011;57146;48.140;16.304;2022-08-01T04:35:56;2.92;;;1.30;;
69854;SDS011;57146;48.140;16.304;2022-08-01T04:38:30;3.37;;;1.63;;
69854;SDS011;57146;48.140;16.304;2022-08-01T04:40:59;3.38;;;1.40;;
69854;SDS011;57146;48.140;16.304;2022-08-01T04:43:35;3.45;;;1.10;;
69854;SDS011;57146;48.140;16.304;2022-08-01T04:46:03;2.70;;;1.23;;
69854;SDS011;57146;48.140;16.304;2022-08-01T04:48:36;2.88;;;1.02;;
69854;SDS011;57146;48.140;16.304;2022-08-01T04:51:09;4.13;;;1.30;;
69854;SDS011;57146;48.140;16.304;2022-08-01T04:53:38;4.03;;;1.25;;
69854;SDS011;57146;48.140;16.304;2022-08-01T04:56:05;4.55;;;1.25;;
69854;SDS011;57146;48.140;16.304;2022-08-01T04:58:32;4.45;;;1.30;;
69854;SDS011;57146;48.140;16.304;2022-08-01T05:00:59;3.28;;;1.30;;
69854;SDS011;57146;48.140;16.304;2022-08-01T05:03:26;4.77;;;1.40;;
69854;SDS011;57146;48.140;16.304;2022-08-01T05:05:53;3.90;;;1.35;;
69854;SDS011;57146;48.140;16.304;2022-08-01T05:08:20;3.95;;;1.30;;
69854;SDS011;57146;48.140;16.304;2022-08-01T05:10:47;6.30;;;1.40;;
69854;SDS011;57146;48.140;16.304;2022-08-01T05:13:14;4.43;;;1.40;;
69854;SDS011;57146;48.140;16.304;2022-08-01T05:15:41;4.57;;;1.40;;
69854;SDS011;57146;48.140;16.304;2022-08-01T05:18:07;3.25;;;1.10;;
69854;SDS011;57146;48.140;16.304;2022-08-01T05:20:35;3.60;;;1.20;;
69854;SDS011;57146;48.140;16.304;2022-08-01T05:23:03;4.78;;;1.30;;
69854;SDS011;57146;48.140;16.304;2022-08-01T05:25:36;3.00;;;1.00;;
69854;SDS011;57146;48.140;16.304;2022-08-01T05:28:23;3.30;;;1.20;;
69854;SDS011;57146;48.140;16.304;2022-08-01T05:30:50;4.18;;;1.00;;
69854;SDS011;57146;48.140;16.304;2022-08-01T05:33:17;4.28;;;0.95;;
69854;SDS011;57146;48.140;16.304;2022-08-01T05:35:44;2.67;;;0.90;;
69854;SDS011;57146;48.140;16.304;2022-08-01T05:38:14;4.40;;;0.85;;
69854;SDS011;57146;48.140;16.304;2022-08-01T05:40:42;3.10;;;1.10;;
69854;SDS011;57146;48.140;16.304;2022-08-01T05:43:08;2.60;;;1.00;;
69854;SDS011;57146;48.140;16.304;2022-08-01T05:45:35;3.67;;;0.80;;
69854;SDS011;57146;48.140;16.304;2022-08-01T05:48:02;3.70;;;0.90;;
69854;SDS011;57146;48.140;16.304;2022-08-01T05:50:29;4.97;;;1.17;;
69854;SDS011;57146;48.140;16.304;2022-08-01T05:52:56;4.40;;;1.10;;
69854;SDS011;57146;48.140;16.304;2022-08-01T05:55:22;4.18;;;1.10;;
69854;SDS011;57146;48.140;16.304;2022-08-01T05:57:49;3.92;;;1.40;;
69854;SDS011;57146;48.140;16.304;2022-08-01T06:00:16;3.88;;;1.15;;
69854;SDS011;57146;48.140;16.304;2022-08-01T06:02:43;3.40;;;1.40;;
69854;SDS011;57146;48.140;16.304;2022-08-01T06:05:10;3.63;;;0.90;;
69854;SDS011;57146;48.140;16.304;2022-08-01T06:07:39;3.17;;;1.00;;
69854;SDS011;57146;48.140;16.304;2022-08-01T06:10:06;3.47;;;0.98;;
69854;SDS011;57146;48.140;16.304;2022-08-01T06:12:34;5.82;;;1.30;;
69854;SDS011;57146;48.140;16.304;2022-08-01T06:15:02;5.20;;;0.82;;
69854;SDS011;57146;48.140;16.304;2022-08-01T06:17:29;3.67;;;0.97;;
69854;SDS011;57146;48.140;16.304;2022-08-01T06:19:56;3.17;;;0.70;;
69854;SDS011;57146;48.140;16.304;2022-08-01T06:22:23;4.13;;;0.80;;
69854;SDS011;57146;48.140;16.304;2022-08-01T06:24:51;4.03;;;1.10;;
69854;SDS011;57146;48.140;16.304;2022-08-01T06:27:18;3.17;;;0.90;;
69854;SDS011;57146;48.140;16.304;2022-08-01T06:29:47;4.97;;;0.97;;
69854;SDS011;57146;48.140;16.304;2022-08-01T06:32:23;3.55;;;0.90;;
69854;SDS011;57146;48.140;16.304;2022-08-01T06:34:53;2.75;;;0.70;;
69854;SDS011;57146;48.140;16.304;2022-08-01T06:37:21;2.63;;;0.80;;
69854;SDS011;57146;48.140;16.304;2022-08-01T06:39:48;3.25;;;0.98;;
69854;SDS011;57146;48.140;16.304;2022-08-01T06:42:15;2.53;;;0.73;;
69854;SDS011;57146;48.140;16.304;2022-08-01T06:44:42;3.28;;;1.02;;
69854;SDS011;57146;48.140;16.304;2022-08-01T06:47:08;2.63;;;0.88;;
69854;SDS011;57146;48.140;16.304;2022-08-01T06:49:35;3.58;;;0.80;;
69854;SDS011;57146;48.140;16.304;2022-08-01T06:52:02;2.72;;;0.90;;
69854;SDS011;57146;48.140;16.304;2022-08-01T06:54:30;3.10;;;0.90;;
69854;SDS011;57146;48.140;16.304;2022-08-01T06:56:57;2.38;;;0.75;;
69854;SDS011;57146;48.140;16.304;2022-08-01T06:59:24;2.95;;;0.65;;
69854;SDS011;57146;48.140;16.304;2022-08-01T07:01:51;3.20;;;0.80;;
69854;SDS011;57146;48.140;16.304;2022-08-01T07:04:17;4.00;;;0.85;;
69854;SDS011;57146;48.140;16.304;2022-08-01T07:06:44;2.53;;;0.70;;
69854;SDS011;57146;48.140;16.304;2022-08-01T07:09:11;2.35;;;0.63;;
69854;SDS011;57146;48.140;16.304;2022-08-01T07:11:40;3.67;;;0.70;;
69854;SDS011;57146;48.140;16.304;2022-08-01T07:14:08;3.30;;;0.88;;
69854;SDS011;57146;48.140;16.304;2022-08-01T07:16:35;2.70;;;0.82;;
69854;SDS011;57146;48.140;16.304;2022-08-01T07:19:02;3.30;;;0.93;;
69854;SDS011;57146;48.140;16.304;2022-08-01T07:21:28;3.38;;;0.88;;
69854;SDS011;57146;48.140;16.304;2022-08-01T07:24:15;3.60;;;1.35;;
69854;SDS011;57146;48.140;16.304;2022-08-01T07:26:45;2.83;;;1.15;;
69854;SDS011;57146;48.140;16.304;2022-08-01T07:29:20;4.22;;;1.35;;
69854;SDS011;57146;48.140;16.304;2022-08-01T07:31:48;4.40;;;1.50;;
69854;SDS011;57146;48.140;16.304;2022-08-01T07:34:15;3.95;;;1.23;;
69854;SDS011;57146;48.140;16.304;2022-08-01T07:36:42;6.05;;;1.70;;
69854;SDS011;57146;48.140;16.304;2022-08-01T07:39:09;3.70;;;1.40;;
69854;SDS011;57146;48.140;16.304;2022-08-01T07:41:36;4.38;;;1.38;;
69854;SDS011;57146;48.140;16.304;2022-08-01T07:44:22;3.83;;;1.40;;
69854;SDS011;57146;48.140;16.304;2022-08-01T07:46:53;4.43;;;1.35;;
69854;SDS011;57146;48.140;16.304;2022-08-01T07:49:20;2.92;;;1.30;;
69854;SDS011;57146;48.140;16.304;2022-08-01T07:51:47;3.25;;;0.90;;
69854;SDS011;57146;48.140;16.304;2022-08-01T07:54:32;2.92;;;0.70;;
69854;SDS011;57146;48.140;16.304;2022-08-01T07:57:00;2.30;;;0.50;;
69854;SDS011;57146;48.140;16.304;2022-08-01T07:59:28;2.97;;;0.80;;
69854;SDS011;57146;48.140;16.304;2022-08-01T08:01:55;2.15;;;0.70;;
69854;SDS011;57146;48.140;16.304;2022-08-01T08:04:22;3.25;;;0.70;;
69854;SDS011;57146;48.140;16.304;2022-08-01T08:06:49;2.80;;;0.52;;
69854;SDS011;57146;48.140;16.304;2022-08-01T08:09:16;2.93;;;0.80;;
69854;SDS011;57146;48.140;16.304;2022-08-01T08:11:43;2.10;;;0.77;;
69854;SDS011;57146;48.140;16.304;2022-08-01T08:14:14;2.10;;;0.60;;
69854;SDS011;57146;48.140;16.304;2022-08-01T08:16:41;2.63;;;1.00;;
69854;SDS011;57146;48.140;16.304;2022-08-01T08:19:09;1.98;;;0.43;;
69854;SDS011;57146;48.140;16.304;2022-08-01T08:21:36;2.73;;;1.60;;
69854;SDS011;57146;48.140;16.304;2022-08-01T08:24:03;3.80;;;0.68;;
69854;SDS011;57146;48.140;16.304;2022-08-01T08:26:30;3.10;;;0.68;;
69854;SDS011;57146;48.140;16.304;2022-08-01T08:28:57;4.63;;;0.95;;
69854;SDS011;57146;48.140;16.304;2022-08-01T08:31:24;2.20;;;0.80;;
69854;SDS011;57146;48.140;16.304;2022-08-01T08:34:11;4.00;;;0.90;;
69854;SDS011;57146;48.140;16.304;2022-08-01T08:36:41;3.17;;;0.73;;
69854;SDS011;57146;48.140;16.304;2022-08-01T08:39:13;2.75;;;1.00;;
69854;SDS011;57146;48.140;16.304;2022-08-01T08:41:42;4.00;;;1.10;;
69854;SDS011;57146;48.140;16.304;2022-08-01T08:44:15;3.20;;;1.20;;
69854;SDS011;57146;48.140;16.304;2022-08-01T08:46:43;3.23;;;1.20;;
69854;SDS011;57146;48.140;16.304;2022-08-01T08:49:14;3.50;;;1.20;;
69854;SDS011;57146;48.140;16.304;2022-08-01T08:51:43;2.80;;;1.30;;
69854;SDS011;57146;48.140;16.304;2022-08-01T08:54:10;3.13;;;1.40;;
69854;SDS011;57146;48.140;16.304;2022-08-01T08:56:38;4.25;;;1.40;;
69854;SDS011;57146;48.140;16.304;2022-08-01T08:59:06;3.43;;;1.40;;
69854;SDS011;57146;48.140;16.304;2022-08-01T09:01:33;5.07;;;1.48;;
69854;SDS011;57146;48.140;16.304;2022-08-01T09:04:01;3.90;;;1.30;;
69854;SDS011;57146;48.140;16.304;2022-08-01T09:06:29;9.52;;;1.75;;
69854;SDS011;57146;48.140;16.304;2022-08-01T09:08:57;5.57;;;1.40;;
69854;SDS011;57146;48.140;16.304;2022-08-01T09:11:25;10.33;;;1.87;;
69854;SDS011;57146;48.140;16.304;2022-08-01T09:16:43;5.03;;;1.63;;
69854;SDS011;57146;48.140;16.304;2022-08-01T09:19:20;4.03;;;1.80;;
69854;SDS011;57146;48.140;16.304;2022-08-01T09:22:07;5.75;;;1.55;;
69854;SDS011;57146;48.140;16.304;2022-08-01T09:24:39;3.90;;;1.60;;
69854;SDS011;57146;48.140;16.304;2022-08-01T09:27:20;2.50;;;1.48;;
69854;SDS011;57146;48.140;16.304;2022-08-01T09:29:48;3.15;;;1.42;;
69854;SDS011;57146;48.140;16.304;2022-08-01T09:32:30;5.05;;;1.77;;
69854;SDS011;57146;48.140;16.304;2022-08-01T09:43:16;3.50;;;1.67;;
69854;SDS011;57146;48.140;16.304;2022-08-01T09:45:45;3.88;;;1.92;;
69854;SDS011;57146;48.140;16.304;2022-08-01T09:48:19;3.47;;;1.60;;
69854;SDS011;57146;48.140;16.304;2022-08-01T09:50:53;4.30;;;1.90;;
69854;SDS011;57146;48.140;16.304;2022-08-01T09:53:26;3.30;;;1.80;;
69854;SDS011;57146;48.140;16.304;2022-08-01T09:56:09;3.75;;;1.75;;
69854;SDS011;57146;48.140;16.304;2022-08-01T10:01:24;3.00;;;1.70;;
69854;SDS011;57146;48.140;16.304;2022-08-01T10:04:34;3.20;;;1.80;;
69854;SDS011;57146;48.140;16.304;2022-08-01T10:06:47;3.40;;;2.00;;
69854;SDS011;57146;48.140;16.304;2022-08-01T10:09:19;5.75;;;2.28;;
69854;SDS011;57146;48.140;16.304;2022-08-01T10:12:06;3.55;;;1.70;;
69854;SDS011;57146;48.140;16.304;2022-08-01T10:14:41;5.07;;;1.60;;
69854;SDS011;57146;48.140;16.304;2022-08-01T10:17:13;3.70;;;1.60;;
69854;SDS011;57146;48.140;16.304;2022-08-01T10:19:45;3.30;;;1.60;;
69854;SDS011;57146;48.140;16.304;2022-08-01T10:22:14;3.67;;;1.70;;
69854;SDS011;57146;48.140;16.304;2022-08-01T10:24:42;3.08;;;1.73;;
69854;SDS011;57146;48.140;16.304;2022-08-01T10:27:11;3.70;;;1.85;;
69854;SDS011;57146;48.140;16.304;2022-08-01T10:29:51;3.17;;;1.87;;
69854;SDS011;57146;48.140;16.304;2022-08-01T10:32:34;4.20;;;1.60;;
69854;SDS011;57146;48.140;16.304;2022-08-01T10:35:05;5.35;;;2.03;;
69854;SDS011;57146;48.140;16.304;2022-08-01T10:37:41;4.43;;;2.03;;
69854;SDS011;57146;48.140;16.304;2022-08-01T10:40:18;3.17;;;1.83;;
69854;SDS011;57146;48.140;16.304;2022-08-01T10:43:01;4.47;;;1.77;;
69854;SDS011;57146;48.140;16.304;2022-08-01T10:45:29;2.83;;;1.83;;
69854;SDS011;57146;48.140;16.304;2022-08-01T10:48:18;2.90;;;1.58;;
69854;SDS011;57146;48.140;16.304;2022-08-01T10:51:04;3.63;;;1.88;;
69854;SDS011;57146;48.140;16.304;2022-08-01T10:53:48;2.60;;;1.70;;
69854;SDS011;57146;48.140;16.304;2022-08-01T10:56:20;3.87;;;1.77;;
69854;SDS011;57146;48.140;16.304;2022-08-01T10:59:00;2.80;;;1.60;;
69854;SDS011;57146;48.140;16.304;2022-08-01T11:01:36;3.05;;;1.85;;
69854;SDS011;57146;48.140;16.304;2022-08-01T11:04:11;3.22;;;1.80;;
69854;SDS011;57146;48.140;16.304;2022-08-01T11:06:49;3.65;;;1.50;;
69854;SDS011;57146;48.140;16.304;2022-08-01T11:09:26;4.40;;;2.17;;
69854;SDS011;57146;48.140;16.304;2022-08-01T11:12:06;4.32;;;1.92;;
69854;SDS011;57146;48.140;16.304;2022-08-01T11:17:31;5.53;;;1.83;;
69854;SDS011;57146;48.140;16.304;2022-08-01T11:20:04;3.78;;;1.80;;
69854;SDS011;57146;48.140;16.304;2022-08-01T11:28:27;4.78;;;1.98;;
69854;SDS011;57146;48.140;16.304;2022-08-01T11:38:38;3.95;;;1.60;;
69854;SDS011;57146;48.140;16.304;2022-08-01T11:41:15;2.95;;;1.70;;
69854;SDS011;57146;48.140;16.304;2022-08-01T11:46:45;4.70;;;1.75;;
69854;SDS011;57146;48.140;16.304;2022-08-01T11:54:41;5.88;;;1.80;;
69854;SDS011;57146;48.140;16.304;2022-08-01T11:57:42;4.72;;;1.80;;
69854;SDS011;57146;48.140;16.304;2022-08-01T12:00:20;4.68;;;2.17;;
69854;SDS011;57146;48.140;16.304;2022-08-01T12:02:53;4.40;;;1.70;;
69854;SDS011;57146;48.140;16.304;2022-08-01T12:05:29;11.48;;;2.30;;
69854;SDS011;57146;48.140;16.304;2022-08-01T12:08:02;6.15;;;2.00;;
69854;SDS011;57146;48.140;16.304;2022-08-01T12:10:32;4.57;;;1.90;;
69854;SDS011;57146;48.140;16.304;2022-08-01T12:13:15;4.03;;;1.98;;
69854;SDS011;57146;48.140;16.304;2022-08-01T12:15:42;3.50;;;1.50;;
69854;SDS011;57146;48.140;16.304;2022-08-01T12:18:09;3.38;;;1.60;;
69854;SDS011;57146;48.140;16.304;2022-08-01T12:20:41;4.97;;;1.85;;
69854;SDS011;57146;48.140;16.304;2022-08-01T12:23:22;14.27;;;2.55;;
69854;SDS011;57146;48.140;16.304;2022-08-01T12:25:52;2.75;;;1.30;;
69854;SDS011;57146;48.140;16.304;2022-08-01T12:28:19;3.13;;;1.30;;
69854;SDS011;57146;48.140;16.304;2022-08-01T12:30:47;1.95;;;0.68;;
69854;SDS011;57146;48.140;16.304;2022-08-01T12:33:16;21.35;;;1.48;;
69854;SDS011;57146;48.140;16.304;2022-08-01T12:35:45;2.55;;;0.25;;
69854;SDS011;57146;48.140;16.304;2022-08-01T12:38:19;10.57;;;1.13;;
69854;SDS011;57146;48.140;16.304;2022-08-01T12:40:47;2.90;;;0.73;;
69854;SDS011;57146;48.140;16.304;2022-08-01T12:43:20;1.83;;;0.50;;
69854;SDS011;57146;48.140;16.304;2022-08-01T12:45:55;1.88;;;0.65;;
69854;SDS011;57146;48.140;16.304;2022-08-01T12:48:24;2.63;;;0.60;;
69854;SDS011;57146;48.140;16.304;2022-08-01T12:50:52;3.25;;;0.50;;
69854;SDS011;57146;48.140;16.304;2022-08-01T12:53:20;2.63;;;0.80;;
69854;SDS011;57146;48.140;16.304;2022-08-01T12:55:52;2.63;;;0.80;;
69854;SDS011;57146;48.140;16.304;2022-08-01T12:58:32;2.85;;;0.70;;
69854;SDS011;57146;48.140;16.304;2022-08-01T13:01:05;3.15;;;1.30;;
69854;SDS011;57146;48.140;16.304;2022-08-01T13:03:34;2.70;;;1.02;;
69854;SDS011;57146;48.140;16.304;2022-08-01T13:06:09;2.77;;;1.13;;
69854;SDS011;57146;48.140;16.304;2022-08-01T13:08:37;3.63;;;1.00;;
69854;SDS011;57146;48.140;16.304;2022-08-01T13:13:41;3.22;;;1.30;;
69854;SDS011;57146;48.140;16.304;2022-08-01T13:16:10;3.65;;;1.33;;
69854;SDS011;57146;48.140;16.304;2022-08-01T13:18:55;3.70;;;1.80;;
69854;SDS011;57146;48.140;16.304;2022-08-01T13:21:24;4.57;;;1.52;;
69854;SDS011;57146;48.140;16.304;2022-08-01T13:24:15;4.05;;;2.00;;
69854;SDS011;57146;48.140;16.304;2022-08-01T13:26:52;4.68;;;2.03;;
69854;SDS011;57146;48.140;16.304;2022-08-01T13:29:30;6.68;;;1.80;;
69854;SDS011;57146;48.140;16.304;2022-08-01T13:32:13;19.03;;;2.40;;
69854;SDS011;57146;48.140;16.304;2022-08-01T13:35:04;7.40;;;1.42;;
69854;SDS011;57146;48.140;16.304;2022-08-01T13:37:34;4.07;;;1.05;;
69854;SDS011;57146;48.140;16.304;2022-08-01T13:40:04;4.25;;;1.25;;
69854;SDS011;57146;48.140;16.304;2022-08-01T13:42:32;6.38;;;1.10;;
69854;SDS011;57146;48.140;16.304;2022-08-01T13:44:59;2.20;;;0.90;;
69854;SDS011;57146;48.140;16.304;2022-08-01T13:47:26;3.45;;;1.00;;
69854;SDS011;57146;48.140;16.304;2022-08-01T13:49:58;8.38;;;0.98;;
69854;SDS011;57146;48.140;16.304;2022-08-01T13:52:29;3.25;;;1.10;;
69854;SDS011;57146;48.140;16.304;2022-08-01T13:54:56;2.08;;;0.90;;
69854;SDS011;57146;48.140;16.304;2022-08-01T13:57:26;5.80;;;0.83;;
69854;SDS011;57146;48.140;16.304;2022-08-01T14:00:03;2.72;;;0.60;;
69854;SDS011;57146;48.140;16.304;2022-08-01T14:02:37;3.30;;;0.70;;
69854;SDS011;57146;48.140;16.304;2022-08-01T14:05:04;2.20;;;0.80;;
69854;SDS011;57146;48.140;16.304;2022-08-01T14:07:31;2.60;;;0.63;;
69854;SDS011;57146;48.140;16.304;2022-08-01T14:09:58;2.07;;;0.50;;
69854;SDS011;57146;48.140;16.304;2022-08-01T14:12:45;1.92;;;0.60;;
69854;SDS011;57146;48.140;16.304;2022-08-01T14:15:16;1.90;;;0.60;;
69854;SDS011;57146;48.140;16.304;2022-08-01T14:18:03;6.68;;;0.95;;
69854;SDS011;57146;48.140;16.304;2022-08-01T14:20:31;21.25;;;1.50;;
69854;SDS011;57146;48.140;16.304;2022-08-01T14:22:59;11.13;;;1.13;;
69854;SDS011;57146;48.140;16.304;2022-08-01T14:25:26;2.10;;;0.68;;
69854;SDS011;57146;48.140;16.304;2022-08-01T14:28:13;2.05;;;0.73;;
69854;SDS011;57146;48.140;16.304;2022-08-01T14:30:40;2.20;;;0.40;;
69854;SDS011;57146;48.140;16.304;2022-08-01T14:33:07;1.90;;;0.60;;
69854;SDS011;57146;48.140;16.304;2022-08-01T14:35:34;64.27;;;4.70;;
69854;SDS011;57146;48.140;16.304;2022-08-01T14:38:20;6.75;;;1.08;;
69854;SDS011;57146;48.140;16.304;2022-08-01T14:40:59;2.10;;;0.52;;
69854;SDS011;57146;48.140;16.304;2022-08-01T14:43:26;1.90;;;0.80;;
69854;SDS011;57146;48.140;16.304;2022-08-01T14:45:59;2.42;;;0.75;;
69854;SDS011;57146;48.140;16.304;2022-08-01T14:48:27;2.17;;;0.80;;
69854;SDS011;57146;48.140;16.304;2022-08-01T14:50:56;2.95;;;0.85;;
69854;SDS011;57146;48.140;16.304;2022-08-01T14:53:23;3.65;;;0.90;;
69854;SDS011;57146;48.140;16.304;2022-08-01T14:55:50;2.25;;;0.70;;
69854;SDS011;57146;48.140;16.304;2022-08-01T14:58:17;2.75;;;0.88;;
69854;SDS011;57146;48.140;16.304;2022-08-01T15:00:44;2.30;;;1.00;;
69854;SDS011;57146;48.140;16.304;2022-08-01T15:03:11;2.00;;;0.90;;
69854;SDS011;57146;48.140;16.304;2022-08-01T15:05:38;3.53;;;1.15;;
69854;SDS011;57146;48.140;16.304;2022-08-01T15:08:05;2.03;;;0.93;;
69854;SDS011;57146;48.140;16.304;2022-08-01T15:10:32;2.13;;;1.02;;
69854;SDS011;57146;48.140;16.304;2022-08-01T15:12:59;3.43;;;1.20;;
69854;SDS011;57146;48.140;16.304;2022-08-01T15:15:26;2.70;;;1.30;;
69854;SDS011;57146;48.140;16.304;2022-08-01T15:17:54;3.08;;;1.30;;
69854;SDS011;57146;48.140;16.304;2022-08-01T15:20:21;3.88;;;1.30;;
69854;SDS011;57146;48.140;16.304;2022-08-01T15:22:48;3.00;;;1.00;;
69854;SDS011;57146;48.140;16.304;2022-08-01T15:25:15;2.97;;;0.90;;
69854;SDS011;57146;48.140;16.304;2022-08-01T15:27:42;2.95;;;1.10;;
69854;SDS011;57146;48.140;16.304;2022-08-01T15:30:09;3.53;;;1.20;;
69854;SDS011;57146;48.140;16.304;2022-08-01T15:32:36;3.03;;;1.10;;
69854;SDS011;57146;48.140;16.304;2022-08-01T15:35:05;2.92;;;1.00;;
69854;SDS011;57146;48.140;16.304;2022-08-01T15:37:34;3.03;;;1.10;;
69854;SDS011;57146;48.140;16.304;2022-08-01T15:40:07;2.92;;;1.02;;
69854;SDS011;57146;48.140;16.304;2022-08-01T15:42:35;3.13;;;1.30;;
69854;SDS011;57146;48.140;16.304;2022-08-01T15:45:02;2.78;;;1.30;;
69854;SDS011;57146;48.140;16.304;2022-08-01T15:47:29;2.50;;;1.20;;
69854;SDS011;57146;48.140;16.304;2022-08-01T15:49:56;4.37;;;1.60;;
69854;SDS011;57146;48.140;16.304;2022-08-01T15:52:23;4.07;;;1.52;;
69854;SDS011;57146;48.140;16.304;2022-08-01T15:54:57;2.65;;;1.40;;